createdAt,value
2023-05-09T00:01:06.586Z,78.19
2023-05-09T00:03:33.360Z,78.17
2023-05-09T00:06:00.062Z,78.07
2023-05-09T00:08:26.829Z,78.11
2023-05-09T00:10:53.823Z,77.83
2023-05-09T00:13:20.974Z,77.74
2023-05-09T00:15:48.374Z,77.76
2023-05-09T00:18:15.483Z,78.07
2023-05-09T00:20:42.619Z,78.63
2023-05-09T00:23:09.523Z,78.93
2023-05-09T00:25:36.520Z,79.36
2023-05-09T00:28:03.349Z,79.70
2023-05-09T00:30:30.910Z,79.59
2023-05-09T00:32:57.889Z,79.48
2023-05-09T00:35:24.745Z,79.63
2023-05-09T00:37:51.514Z,79.21
2023-05-09T00:40:18.371Z,79.11
2023-05-09T00:42:45.706Z,78.96
2023-05-09T00:45:12.760Z,78.74
2023-05-09T00:47:39.962Z,79.00
2023-05-09T00:50:07.494Z,79.24
2023-05-09T00:52:34.910Z,79.70
2023-05-09T00:55:03.010Z,79.70
2023-05-09T00:57:29.754Z,79.84
2023-05-09T00:59:56.638Z,79.70
2023-05-09T01:02:23.987Z,79.66
2023-05-09T01:04:51.285Z,79.65
2023-05-09T01:07:36.843Z,79.69
2023-05-09T01:10:21.541Z,78.85
2023-05-09T01:13:13.434Z,78.78
2023-05-09T01:16:11.947Z,78.66
2023-05-09T01:18:45.421Z,78.53
2023-05-09T01:21:17.000Z,77.98
2023-05-09T01:23:44.313Z,77.41
2023-05-09T01:26:19.845Z,77.45
2023-05-09T01:29:17.442Z,77.32
2023-05-09T01:31:46.768Z,77.68
2023-05-09T01:34:16.879Z,77.45
2023-05-09T01:36:44.334Z,77.64
2023-05-09T01:39:13.450Z,77.34
2023-05-09T01:41:40.637Z,77.26
2023-05-09T01:44:11.702Z,77.21
2023-05-09T01:46:39.937Z,77.23
2023-05-09T01:49:09.504Z,77.61
2023-05-09T01:51:39.897Z,77.42
2023-05-09T01:54:08.207Z,77.55
2023-05-09T01:56:38.259Z,77.79
2023-05-09T01:59:07.660Z,78.20
2023-05-09T02:01:35.917Z,78.29
2023-05-09T02:04:04.609Z,78.60
2023-05-09T02:06:32.643Z,78.53
2023-05-09T02:08:59.562Z,78.58
2023-05-09T02:11:26.399Z,78.95
2023-05-09T02:13:53.243Z,78.63
2023-05-09T02:16:21.198Z,78.66
2023-05-09T02:18:48.727Z,78.44
2023-05-09T02:21:15.664Z,78.17
2023-05-09T02:23:42.629Z,77.98
2023-05-09T02:26:09.397Z,78.26
2023-05-09T02:28:37.883Z,78.57
2023-05-09T02:31:07.536Z,78.49
2023-05-09T02:33:37.482Z,78.65
2023-05-09T02:36:06.128Z,78.85
2023-05-09T02:38:33.877Z,79.19
2023-05-09T02:41:02.482Z,79.17
2023-05-09T02:43:29.231Z,79.41
2023-05-09T02:45:56.033Z,79.76
2023-05-09T02:48:23.410Z,79.93
2023-05-09T02:50:50.214Z,80.24
2023-05-09T02:53:17.009Z,80.36
2023-05-09T02:55:43.934Z,80.24
2023-05-09T02:58:14.842Z,80.65
2023-05-09T03:00:43.249Z,80.76
2023-05-09T03:03:10.999Z,81.11
2023-05-09T03:05:37.915Z,80.82
2023-05-09T03:08:05.195Z,80.96
2023-05-09T03:10:32.778Z,81.30
2023-05-09T03:12:59.596Z,80.45
2023-05-09T03:15:27.437Z,80.24
2023-05-09T03:17:54.657Z,80.24
2023-05-09T03:20:21.934Z,79.46
2023-05-09T03:22:49.613Z,79.31
2023-05-09T03:25:17.057Z,79.52
2023-05-09T03:27:44.990Z,79.65
2023-05-09T03:30:14.585Z,79.88
2023-05-09T03:32:42.463Z,79.68
2023-05-09T03:35:09.315Z,80.53
2023-05-09T03:37:36.181Z,80.67
2023-05-09T03:40:04.037Z,80.68
2023-05-09T03:42:32.296Z,81.03
2023-05-09T03:45:00.591Z,81.22
2023-05-09T03:47:28.913Z,81.43
2023-05-09T03:49:56.729Z,81.37
2023-05-09T03:52:24.108Z,81.27
2023-05-09T03:54:51.033Z,81.33
2023-05-09T03:57:17.894Z,81.68
2023-05-09T03:59:45.109Z,82.03
2023-05-09T04:02:14.644Z,82.10
2023-05-09T04:04:41.591Z,82.10
2023-05-09T04:07:09.198Z,81.76
2023-05-09T04:09:36.464Z,81.85
2023-05-09T04:12:03.384Z,81.74
2023-05-09T04:14:30.797Z,81.60
2023-05-09T04:16:57.842Z,81.65
2023-05-09T04:19:25.852Z,81.47
2023-05-09T04:21:53.616Z,81.58
2023-05-09T04:24:20.759Z,81.57
2023-05-09T04:26:48.522Z,81.78
2023-05-09T04:29:18.284Z,81.79
2023-05-09T04:31:49.507Z,82.04
2023-05-09T04:34:16.663Z,82.05
2023-05-09T04:36:44.981Z,82.00
2023-05-09T04:39:12.965Z,81.94
2023-05-09T04:41:44.615Z,82.07
2023-05-09T04:44:13.974Z,81.68
2023-05-09T04:46:40.930Z,80.82
2023-05-09T04:49:07.752Z,79.06
2023-05-09T04:51:34.589Z,77.28
2023-05-09T04:54:01.502Z,75.25
2023-05-09T04:56:31.193Z,73.34
2023-05-09T04:59:15.935Z,71.25
2023-05-09T05:01:43.580Z,68.96
2023-05-09T05:04:10.787Z,67.16
2023-05-09T05:06:37.889Z,65.03
2023-05-09T05:09:05.167Z,63.48
2023-05-09T05:11:31.950Z,62.84
2023-05-09T05:13:59.072Z,62.21
2023-05-09T05:16:26.708Z,62.17
2023-05-09T05:18:53.515Z,61.46
2023-05-09T05:21:20.502Z,60.81
2023-05-09T05:23:47.375Z,60.87
2023-05-09T05:26:14.309Z,60.56
2023-05-09T05:28:41.355Z,60.27
2023-05-09T05:31:08.095Z,61.09
2023-05-09T05:33:34.912Z,60.27
2023-05-09T05:36:02.212Z,60.07
2023-05-09T05:38:29.316Z,59.67
2023-05-09T05:40:56.668Z,59.83
2023-05-09T05:43:23.875Z,59.83
2023-05-09T05:45:51.211Z,59.12
2023-05-09T05:48:19.618Z,57.83
2023-05-09T05:50:46.755Z,56.99
2023-05-09T05:53:14.655Z,55.89
2023-05-09T05:55:41.903Z,54.42
2023-05-09T05:58:08.703Z,51.51
2023-05-09T06:00:36.299Z,49.70
2023-05-09T06:03:03.715Z,48.47
2023-05-09T06:05:42.625Z,47.37
2023-05-09T06:08:09.499Z,45.39
2023-05-09T06:10:36.342Z,44.78
2023-05-09T06:13:03.126Z,43.23
2023-05-09T06:15:30.177Z,42.43
2023-05-09T06:17:57.147Z,41.25
2023-05-09T06:20:23.916Z,41.25
2023-05-09T06:22:50.867Z,40.98
2023-05-09T06:25:19.086Z,41.47
2023-05-09T06:27:45.960Z,40.66
2023-05-09T06:30:24.742Z,41.01
2023-05-09T06:32:52.323Z,39.54
2023-05-09T06:35:19.197Z,38.25
2023-05-09T06:37:48.374Z,36.86
2023-05-09T06:40:15.900Z,36.87
2023-05-09T06:42:42.673Z,36.16
2023-05-09T06:45:09.865Z,35.34
2023-05-09T06:47:36.683Z,35.31
2023-05-09T06:50:03.831Z,34.49
2023-05-09T06:52:30.569Z,34.41
2023-05-09T06:54:57.388Z,33.83
2023-05-09T06:57:24.279Z,34.56
2023-05-09T06:59:52.087Z,33.91
2023-05-09T07:02:18.856Z,34.29
2023-05-09T07:04:48.192Z,33.28
2023-05-09T07:07:15.456Z,33.58
2023-05-09T07:09:42.483Z,32.70
2023-05-09T07:12:10.041Z,32.52
2023-05-09T07:14:36.885Z,32.85
2023-05-09T07:17:18.747Z,32.92
2023-05-09T07:19:52.044Z,32.99
2023-05-09T07:22:19.224Z,32.80
2023-05-09T07:24:46.597Z,32.80
2023-05-09T07:27:13.749Z,32.65
2023-05-09T07:29:40.623Z,32.92
2023-05-09T07:32:07.498Z,32.93
2023-05-09T07:34:34.621Z,33.03
2023-05-09T07:37:01.521Z,32.38
2023-05-09T07:39:28.270Z,32.76
2023-05-09T07:41:55.240Z,32.43
2023-05-09T07:44:22.782Z,31.89
2023-05-09T07:46:49.850Z,31.28
2023-05-09T07:49:16.694Z,31.36
2023-05-09T07:51:43.528Z,32.13
2023-05-09T07:54:10.392Z,31.70
2023-05-09T07:56:37.301Z,31.34
2023-05-09T07:59:05.563Z,31.49
2023-05-09T08:01:32.449Z,30.98
2023-05-09T08:03:59.438Z,30.88
2023-05-09T08:06:26.636Z,30.58
2023-05-09T08:08:53.451Z,31.16
2023-05-09T08:11:20.261Z,29.80
2023-05-09T08:13:48.308Z,29.75
2023-05-09T08:16:17.440Z,29.88
2023-05-09T08:18:44.752Z,29.80
2023-05-09T08:21:11.537Z,30.40
2023-05-09T08:23:38.955Z,29.54
2023-05-09T08:26:05.963Z,30.23
2023-05-09T08:28:32.783Z,30.28
2023-05-09T08:30:59.760Z,30.64
2023-05-09T08:33:26.644Z,30.23
2023-05-09T08:35:53.963Z,29.91
2023-05-09T08:38:24.499Z,30.42
2023-05-09T08:40:51.325Z,30.65
2023-05-09T08:43:20.310Z,29.77
2023-05-09T08:45:52.131Z,30.48
2023-05-09T08:48:19.631Z,29.82
2023-05-09T08:50:47.314Z,29.43
2023-05-09T08:53:14.909Z,29.63
2023-05-09T08:55:41.847Z,29.91
2023-05-09T08:58:09.779Z,30.42
2023-05-09T09:00:38.799Z,29.30
2023-05-09T09:03:06.917Z,29.90
2023-05-09T09:05:41.883Z,30.25
2023-05-09T09:08:10.992Z,29.18
2023-05-09T09:10:47.706Z,29.64
2023-05-09T09:13:16.894Z,29.38
2023-05-09T09:15:46.450Z,29.40
2023-05-09T09:18:20.954Z,29.46
2023-05-09T09:20:52.205Z,29.46
2023-05-09T09:23:21.329Z,30.10
2023-05-09T09:25:48.891Z,30.37
2023-05-09T09:28:15.790Z,29.16
2023-05-09T09:30:46.043Z,29.69
2023-05-09T09:33:22.668Z,30.69
2023-05-09T09:35:51.118Z,29.26
2023-05-09T09:38:19.723Z,29.44
2023-05-09T09:40:58.596Z,29.81
2023-05-09T09:43:30.494Z,29.58
2023-05-09T09:46:01.196Z,30.38
2023-05-09T09:48:33.793Z,30.22
2023-05-09T09:51:11.988Z,30.28
2023-05-09T09:53:39.703Z,30.74
2023-05-09T09:56:07.039Z,31.12
2023-05-09T09:58:34.270Z,31.69
2023-05-09T10:01:06.417Z,31.52
2023-05-09T10:03:38.297Z,31.21
2023-05-09T10:06:05.800Z,32.44
2023-05-09T10:08:32.797Z,34.21
2023-05-09T10:10:59.997Z,33.48
2023-05-09T10:13:27.492Z,32.84
2023-05-09T10:15:55.893Z,31.59
2023-05-09T10:18:28.875Z,33.30
2023-05-09T10:21:01.131Z,33.32
2023-05-09T10:23:30.917Z,33.24
2023-05-09T10:26:05.095Z,33.50
2023-05-09T10:28:35.258Z,33.46
2023-05-09T10:31:33.107Z,33.52
2023-05-09T10:34:05.062Z,32.85
2023-05-09T10:36:32.705Z,33.00
2023-05-09T10:39:00.164Z,32.85
2023-05-09T10:41:27.069Z,33.49
2023-05-09T10:43:57.313Z,32.89
2023-05-09T10:46:25.226Z,32.15
2023-05-09T10:48:52.631Z,33.43
2023-05-09T10:51:19.698Z,34.09
2023-05-09T10:53:48.753Z,34.04
2023-05-09T10:56:25.169Z,33.86
2023-05-09T10:58:51.926Z,33.12
2023-05-09T11:01:37.226Z,33.54
2023-05-09T11:04:14.744Z,33.37
2023-05-09T11:06:43.981Z,33.61
2023-05-09T11:09:32.922Z,33.56
2023-05-09T11:12:02.343Z,32.37
2023-05-09T11:14:31.117Z,32.93
2023-05-09T11:16:59.804Z,33.21
2023-05-09T11:19:45.648Z,32.97
2023-05-09T11:22:15.778Z,32.64
2023-05-09T11:24:51.850Z,32.64
2023-05-09T11:27:28.415Z,33.20
2023-05-09T11:29:58.099Z,31.23
2023-05-09T11:32:31.852Z,30.70
2023-05-09T11:35:10.004Z,30.82
2023-05-09T11:37:52.596Z,30.07
2023-05-09T11:40:24.315Z,27.29
2023-05-09T11:42:57.758Z,26.52
2023-05-09T11:45:29.974Z,26.13
2023-05-09T11:47:57.693Z,26.73
2023-05-09T11:50:25.231Z,26.84
2023-05-09T11:52:54.167Z,27.27
2023-05-09T11:55:23.031Z,26.86
2023-05-09T11:57:52.419Z,25.88
2023-05-09T12:00:22.025Z,26.81
2023-05-09T12:02:51.115Z,26.92
2023-05-09T12:05:20.863Z,27.15
2023-05-09T12:07:48.035Z,27.23
2023-05-09T12:10:21.233Z,27.47
2023-05-09T12:12:50.190Z,28.62
2023-05-09T12:15:19.701Z,28.48
2023-05-09T12:17:50.482Z,27.03
2023-05-09T12:20:18.906Z,27.43
2023-05-09T12:22:53.756Z,26.55
2023-05-09T12:25:20.593Z,27.07
2023-05-09T12:27:47.476Z,26.42
2023-05-09T12:30:16.280Z,25.39
2023-05-09T12:32:43.932Z,24.75
2023-05-09T12:35:11.500Z,24.98
2023-05-09T12:37:39.026Z,24.59
2023-05-09T12:40:11.397Z,23.80
2023-05-09T12:42:39.092Z,23.82
2023-05-09T12:45:08.912Z,23.24
2023-05-09T12:47:37.330Z,22.81
2023-05-09T12:50:06.497Z,23.10
2023-05-09T12:52:36.777Z,22.98
2023-05-09T12:55:09.096Z,23.70
2023-05-09T12:57:36.140Z,23.32
2023-05-09T13:00:07.653Z,22.27
2023-05-09T13:02:37.056Z,23.63
2023-05-09T13:05:12.195Z,23.17
2023-05-09T13:07:41.117Z,22.56
2023-05-09T13:10:14.664Z,22.93
2023-05-09T13:12:45.401Z,23.82
2023-05-09T13:15:12.722Z,24.98
2023-05-09T13:17:39.846Z,24.02
2023-05-09T13:20:07.499Z,24.84
2023-05-09T13:22:35.809Z,25.66
2023-05-09T13:25:03.412Z,26.18
2023-05-09T13:27:30.581Z,26.60
2023-05-09T13:29:57.634Z,26.08
2023-05-09T13:32:25.072Z,26.10
2023-05-09T13:34:52.901Z,25.28
2023-05-09T13:37:19.873Z,24.22
2023-05-09T13:39:46.703Z,24.24
2023-05-09T13:42:13.596Z,23.46
2023-05-09T13:44:40.402Z,23.92
2023-05-09T13:47:07.965Z,23.74
2023-05-09T13:49:35.061Z,24.38
2023-05-09T13:52:01.839Z,23.00
2023-05-09T13:54:31.372Z,23.25
2023-05-09T13:56:58.278Z,23.43
2023-05-09T13:59:25.017Z,24.31
2023-05-09T14:01:52.111Z,25.37
2023-05-09T14:04:19.158Z,26.69
2023-05-09T14:06:48.311Z,27.39
2023-05-09T14:09:15.766Z,27.16
2023-05-09T14:11:42.882Z,27.48
2023-05-09T14:14:09.628Z,28.34
2023-05-09T14:16:36.465Z,27.54
2023-05-09T14:19:03.293Z,28.84
2023-05-09T14:21:30.067Z,28.46
2023-05-09T14:23:57.513Z,28.95
2023-05-09T14:26:26.590Z,28.68
2023-05-09T14:28:54.310Z,29.18
2023-05-09T14:31:21.271Z,29.82
2023-05-09T14:33:48.109Z,29.64
2023-05-09T14:36:14.989Z,30.99
2023-05-09T14:38:43.073Z,30.86
2023-05-09T14:41:09.958Z,31.47
2023-05-09T14:43:36.983Z,30.74
2023-05-09T14:46:03.977Z,31.10
2023-05-09T14:48:30.868Z,30.68
2023-05-09T14:50:57.749Z,30.91
2023-05-09T14:53:24.689Z,30.76
2023-05-09T14:55:52.277Z,31.33
2023-05-09T14:58:19.510Z,31.35
2023-05-09T15:00:47.458Z,31.96
2023-05-09T15:03:14.652Z,31.94
2023-05-09T15:05:42.228Z,32.46
2023-05-09T15:08:09.085Z,32.17
2023-05-09T15:10:36.084Z,32.77
2023-05-09T15:13:05.796Z,32.22
2023-05-09T15:15:32.931Z,33.16
2023-05-09T15:18:01.035Z,32.46
2023-05-09T15:20:27.819Z,32.84
2023-05-09T15:22:54.641Z,33.15
2023-05-09T15:25:23.278Z,33.28
2023-05-09T15:27:51.130Z,33.54
2023-05-09T15:30:20.251Z,33.25
2023-05-09T15:32:47.212Z,34.05
2023-05-09T15:35:14.230Z,33.48
2023-05-09T15:37:41.163Z,33.67
2023-05-09T15:40:08.534Z,33.24
2023-05-09T15:42:35.936Z,33.40
2023-05-09T15:45:03.840Z,34.34
2023-05-09T15:47:31.076Z,34.57
2023-05-09T15:49:57.882Z,34.54
2023-05-09T15:52:24.720Z,34.97
2023-05-09T15:54:51.447Z,34.33
2023-05-09T15:57:18.210Z,34.37
2023-05-09T15:59:44.978Z,33.83
2023-05-09T16:04:39.011Z,33.95
2023-05-09T16:07:05.840Z,34.13
2023-05-09T16:09:32.985Z,33.96
2023-05-09T16:11:59.727Z,34.24
2023-05-09T16:14:26.618Z,34.22
2023-05-09T16:16:54.028Z,33.85
2023-05-09T16:19:21.873Z,33.51
2023-05-09T16:21:48.788Z,33.46
2023-05-09T16:24:15.559Z,33.42
2023-05-09T16:26:42.378Z,33.86
2023-05-09T16:29:10.013Z,34.56
2023-05-09T16:31:37.083Z,34.46
2023-05-09T16:34:04.033Z,34.75
2023-05-09T16:36:33.748Z,35.14
2023-05-09T16:39:02.789Z,35.51
2023-05-09T16:41:29.687Z,35.16
2023-05-09T16:43:57.498Z,35.19
2023-05-09T16:46:24.874Z,35.21
2023-05-09T16:48:52.705Z,35.25
2023-05-09T16:51:19.477Z,35.28
2023-05-09T16:53:46.349Z,35.55
2023-05-09T16:56:13.317Z,36.04
2023-05-09T16:58:40.156Z,36.03
2023-05-09T17:01:07.105Z,36.76
2023-05-09T17:03:34.318Z,36.41
2023-05-09T17:06:01.207Z,36.24
2023-05-09T17:08:27.962Z,36.17
2023-05-09T17:10:55.118Z,36.29
2023-05-09T17:13:22.100Z,36.11
2023-05-09T17:15:49.402Z,36.58
2023-05-09T17:18:22.177Z,36.18
2023-05-09T17:20:56.831Z,36.70
2023-05-09T17:23:24.484Z,36.85
2023-05-09T17:25:51.915Z,36.68
2023-05-09T17:28:18.625Z,37.08
2023-05-09T17:30:45.578Z,37.06
2023-05-09T17:33:12.354Z,37.05
2023-05-09T17:35:46.993Z,37.28
2023-05-09T17:38:14.165Z,37.33
2023-05-09T17:40:40.999Z,37.54
2023-05-09T17:43:07.726Z,37.53
2023-05-09T17:45:34.552Z,37.64
2023-05-09T17:48:02.339Z,38.10
2023-05-09T17:50:29.317Z,38.12
2023-05-09T17:52:57.069Z,38.07
2023-05-09T17:55:23.861Z,38.46
2023-05-09T17:57:50.767Z,38.56
2023-05-09T18:00:18.478Z,38.62
2023-05-09T18:02:48.278Z,38.97
2023-05-09T18:05:16.392Z,38.88
2023-05-09T18:07:43.214Z,39.26
2023-05-09T18:10:13.701Z,39.50
2023-05-09T18:12:41.002Z,39.54
2023-05-09T18:15:09.401Z,39.73
2023-05-09T18:17:36.910Z,39.94
2023-05-09T18:20:08.415Z,39.86
2023-05-09T18:22:38.646Z,40.27
2023-05-09T18:25:07.738Z,40.80
2023-05-09T18:27:35.257Z,41.20
2023-05-09T18:30:02.143Z,41.69
2023-05-09T18:32:29.987Z,41.76
2023-05-09T18:35:12.577Z,41.86
2023-05-09T18:37:39.957Z,42.23
2023-05-09T18:40:10.971Z,42.29
2023-05-09T18:42:39.380Z,42.73
2023-05-09T18:45:12.327Z,43.21
2023-05-09T18:47:39.647Z,43.70
2023-05-09T18:50:07.413Z,43.94
2023-05-09T18:52:35.583Z,44.24
2023-05-09T18:55:04.128Z,44.66
2023-05-09T18:57:31.089Z,45.01
2023-05-09T18:59:58.219Z,45.22
2023-05-09T19:02:26.555Z,45.57
2023-05-09T19:04:53.782Z,45.89
2023-05-09T19:07:23.926Z,46.53
2023-05-09T19:09:50.694Z,46.53
2023-05-09T19:12:17.794Z,46.84
2023-05-09T19:14:44.587Z,47.36
2023-05-09T19:17:12.059Z,47.45
2023-05-09T19:19:39.455Z,48.08
2023-05-09T19:22:07.490Z,48.38
2023-05-09T19:24:38.789Z,48.37
2023-05-09T19:27:07.696Z,48.92
2023-05-09T19:29:35.980Z,49.26
2023-05-09T19:32:04.123Z,49.07
2023-05-09T19:34:31.026Z,49.48
2023-05-09T19:36:57.800Z,49.68
2023-05-09T19:39:25.680Z,50.03
2023-05-09T19:41:52.517Z,50.31
2023-05-09T19:44:19.288Z,50.58
2023-05-09T19:46:46.249Z,51.46
2023-05-09T19:52:04.156Z,52.75
2023-05-09T19:54:31.181Z,52.55
2023-05-09T19:56:58.107Z,53.35
2023-05-09T19:59:24.910Z,54.57
2023-05-09T20:01:51.909Z,53.98
2023-05-09T20:04:21.830Z,54.23
2023-05-09T20:06:48.766Z,54.04
2023-05-09T20:09:18.001Z,53.92
2023-05-09T20:11:44.740Z,54.18
2023-05-09T20:14:11.572Z,54.09
2023-05-09T20:16:38.432Z,54.84
2023-05-09T20:19:08.004Z,54.33
2023-05-09T20:21:35.527Z,53.90
2023-05-09T20:24:03.494Z,54.32
2023-05-09T20:26:31.788Z,54.44
2023-05-09T20:29:01.659Z,53.95
2023-05-09T20:31:29.366Z,53.59
2023-05-09T20:33:57.974Z,53.48
2023-05-09T20:36:26.274Z,53.22
2023-05-09T20:38:53.150Z,53.07
2023-05-09T20:41:22.006Z,52.64
2023-05-09T20:43:50.187Z,52.78
2023-05-09T20:46:17.576Z,52.36
2023-05-09T20:48:44.479Z,52.40
2023-05-09T20:51:11.222Z,52.01
2023-05-09T20:53:38.004Z,51.84
2023-05-09T20:56:05.088Z,51.46
2023-05-09T20:58:33.997Z,51.15
2023-05-09T21:01:00.952Z,51.31
2023-05-09T21:03:27.969Z,51.04
2023-05-09T21:05:54.912Z,51.18
2023-05-09T21:08:23.330Z,50.96
2023-05-09T21:10:52.564Z,51.05
2023-05-09T21:13:19.571Z,50.74
2023-05-09T21:15:49.124Z,50.70
2023-05-09T21:18:15.960Z,50.61
2023-05-09T21:20:42.815Z,50.60
2023-05-09T21:23:09.652Z,50.44
2023-05-09T21:25:36.470Z,50.50
2023-05-09T21:28:03.390Z,50.48
2023-05-09T21:30:30.349Z,50.44
2023-05-09T21:32:57.118Z,50.52
2023-05-09T21:35:23.992Z,50.37
2023-05-09T21:37:52.718Z,50.75
2023-05-09T21:40:19.854Z,50.66
2023-05-09T21:42:47.882Z,50.64
2023-05-09T21:45:14.920Z,50.79
2023-05-09T21:47:41.821Z,51.16
2023-05-09T21:50:09.338Z,51.30
2023-05-09T21:52:36.165Z,51.25
2023-05-09T21:55:02.957Z,51.34
2023-05-09T21:57:29.842Z,51.50
2023-05-09T22:00:01.179Z,51.51
2023-05-09T22:02:29.876Z,51.56
2023-05-09T22:04:56.747Z,51.80
2023-05-09T22:07:23.596Z,52.05
2023-05-09T22:09:50.566Z,52.31
2023-05-09T22:12:17.386Z,52.71
2023-05-09T22:14:55.383Z,52.83
2023-05-09T22:17:24.325Z,52.88
2023-05-09T22:19:51.441Z,53.42
2023-05-09T22:22:18.235Z,53.77
2023-05-09T22:24:45.021Z,54.93
2023-05-09T22:27:11.926Z,55.07
2023-05-09T22:29:38.736Z,56.40
2023-05-09T22:32:07.801Z,56.29
2023-05-09T22:34:35.532Z,57.29
2023-05-09T22:37:02.339Z,57.72
2023-05-09T22:39:29.839Z,58.31
2023-05-09T22:41:56.821Z,58.87
2023-05-09T22:44:23.567Z,58.61
2023-05-09T22:46:50.418Z,59.23
2023-05-09T22:49:18.310Z,59.63
2023-05-09T22:51:45.180Z,60.54
2023-05-09T22:54:12.201Z,60.94
2023-05-09T22:56:39.006Z,61.86
2023-05-09T22:59:05.872Z,62.35
2023-05-09T23:01:32.740Z,62.44
2023-05-09T23:03:59.621Z,63.26
2023-05-09T23:06:26.351Z,63.79
2023-05-09T23:08:53.058Z,63.68
2023-05-09T23:11:21.041Z,64.00
2023-05-09T23:13:48.032Z,64.33
2023-05-09T23:16:16.246Z,64.87
2023-05-09T23:18:43.300Z,64.90
2023-05-09T23:21:10.034Z,65.35
2023-05-09T23:23:37.137Z,65.74
2023-05-09T23:26:03.938Z,66.13
2023-05-09T23:28:30.679Z,66.44
2023-05-09T23:30:57.415Z,66.78
2023-05-09T23:33:24.334Z,67.02
2023-05-09T23:35:51.203Z,67.69
2023-05-09T23:38:17.960Z,67.99
2023-05-09T23:40:46.148Z,68.21
2023-05-09T23:43:13.682Z,68.31
2023-05-09T23:45:40.559Z,67.96
2023-05-09T23:48:07.979Z,68.43
2023-05-09T23:50:34.776Z,68.38
2023-05-09T23:53:01.928Z,68.23
2023-05-09T23:55:29.197Z,68.44
2023-05-09T23:57:56.056Z,68.55
